createdAt,value
2023-05-17T00:01:59.327Z,73.89
2023-05-17T00:07:02.278Z,74.26
2023-05-17T00:12:07.135Z,74.20
2023-05-17T00:17:10.013Z,71.78
2023-05-17T00:22:13.141Z,72.36
2023-05-17T00:27:17.467Z,71.56
2023-05-17T00:32:21.065Z,72.18
2023-05-17T00:37:24.044Z,72.54
2023-05-17T00:42:28.409Z,72.77
2023-05-17T00:47:31.432Z,72.18
2023-05-17T00:52:34.439Z,74.76
2023-05-17T00:57:39.026Z,74.75
2023-05-17T01:02:44.606Z,74.21
2023-05-17T01:07:47.662Z,74.57
2023-05-17T01:13:11.763Z,74.52
2023-05-17T01:18:22.913Z,75.53
2023-05-17T01:23:46.362Z,74.63
2023-05-17T01:28:54.683Z,75.25
2023-05-17T01:33:58.871Z,74.54
2023-05-17T01:39:04.546Z,76.47
2023-05-17T01:44:19.949Z,75.99
2023-05-17T01:49:28.052Z,76.95
2023-05-17T01:54:38.143Z,77.89
2023-05-17T01:59:45.323Z,77.80
2023-05-17T02:04:48.635Z,77.83
2023-05-17T02:09:51.759Z,78.46
2023-05-17T02:14:56.039Z,79.48
2023-05-17T02:19:59.000Z,79.21
2023-05-17T02:25:02.009Z,79.54
2023-05-17T02:30:07.722Z,79.46
2023-05-17T02:35:10.842Z,80.19
2023-05-17T02:40:14.385Z,82.26
2023-05-17T02:45:18.993Z,81.25
2023-05-17T02:50:22.076Z,81.81
2023-05-17T02:55:25.020Z,82.94
2023-05-17T03:00:29.462Z,82.99
2023-05-17T03:05:32.708Z,84.14
2023-05-17T03:10:35.779Z,84.01
2023-05-17T03:15:40.855Z,85.58
2023-05-17T03:20:44.204Z,84.72
2023-05-17T03:25:47.202Z,84.65
2023-05-17T03:30:51.854Z,84.60
2023-05-17T03:35:55.377Z,85.01
2023-05-17T03:40:58.438Z,86.18
2023-05-17T03:46:03.158Z,85.98
2023-05-17T03:51:07.067Z,86.04
2023-05-17T03:56:11.235Z,85.37
2023-05-17T04:01:15.833Z,84.23
2023-05-17T04:06:18.823Z,84.13
2023-05-17T04:11:24.111Z,82.34
2023-05-17T04:21:52.555Z,82.58
2023-05-17T04:27:01.335Z,80.20
2023-05-17T04:32:08.384Z,79.38
2023-05-17T04:37:11.425Z,78.55
2023-05-17T04:42:15.180Z,71.04
2023-05-17T04:47:26.031Z,70.70
2023-05-17T04:52:29.109Z,70.72
2023-05-17T04:57:32.206Z,72.59
2023-05-17T05:02:40.158Z,75.86
2023-05-17T05:07:44.085Z,79.70
2023-05-17T05:12:49.000Z,75.82
2023-05-17T05:17:53.738Z,73.97
2023-05-17T05:22:58.482Z,70.93
2023-05-17T05:28:02.573Z,72.70
2023-05-17T05:33:07.992Z,71.61
2023-05-17T05:38:11.743Z,68.96
2023-05-17T05:43:15.706Z,70.98
2023-05-17T05:48:20.526Z,72.94
2023-05-17T05:53:23.660Z,71.64
2023-05-17T05:58:30.426Z,67.19
2023-05-17T06:03:34.927Z,65.99
2023-05-17T06:08:37.856Z,65.56
2023-05-17T06:13:40.865Z,70.87
2023-05-17T06:18:47.995Z,74.38
2023-05-17T06:23:54.034Z,74.65
2023-05-17T06:28:56.930Z,75.44
2023-05-17T06:34:01.275Z,73.82
2023-05-17T06:39:04.396Z,75.83
2023-05-17T06:44:07.400Z,79.46
2023-05-17T06:49:11.746Z,73.39
2023-05-17T06:54:14.710Z,72.08
2023-05-17T06:59:17.715Z,74.00
2023-05-17T07:04:22.278Z,72.01
2023-05-17T07:09:25.445Z,69.82
2023-05-17T07:14:28.343Z,71.93
2023-05-17T07:19:32.731Z,71.66
2023-05-17T07:24:36.287Z,71.25
2023-05-17T07:29:39.249Z,76.06
2023-05-17T07:34:43.683Z,72.06
2023-05-17T07:39:49.000Z,67.10
2023-05-17T07:44:52.051Z,69.75
2023-05-17T07:49:56.350Z,63.63
2023-05-17T07:54:59.286Z,67.54
2023-05-17T08:00:02.213Z,66.55
2023-05-17T08:05:27.475Z,67.18
2023-05-17T08:10:30.803Z,65.02
2023-05-17T08:15:33.864Z,62.76
2023-05-17T08:20:38.586Z,60.08
2023-05-17T08:25:42.030Z,60.86
2023-05-17T08:30:45.006Z,60.93
2023-05-17T08:35:50.118Z,61.81
2023-05-17T08:40:56.197Z,66.52
2023-05-17T08:45:59.792Z,65.36
2023-05-17T08:51:04.520Z,66.88
2023-05-17T08:56:08.357Z,65.42
2023-05-17T09:01:13.695Z,62.17
2023-05-17T09:06:21.571Z,66.96
2023-05-17T09:11:29.202Z,68.84
2023-05-17T09:16:33.441Z,69.00
2023-05-17T09:21:38.066Z,67.84
2023-05-17T09:26:43.097Z,67.06
2023-05-17T09:31:46.324Z,63.24
2023-05-17T09:36:51.437Z,61.71
2023-05-17T09:41:58.330Z,64.07
2023-05-17T09:47:01.550Z,65.12
2023-05-17T09:52:09.422Z,67.46
2023-05-17T09:57:12.443Z,70.10
2023-05-17T10:02:24.236Z,68.66
2023-05-17T10:07:29.265Z,69.49
2023-05-17T10:12:35.194Z,68.24
2023-05-17T10:17:43.910Z,65.23
2023-05-17T10:22:50.773Z,62.79
2023-05-17T10:27:54.527Z,62.55
2023-05-17T10:32:58.011Z,63.59
2023-05-17T10:38:02.440Z,58.39
2023-05-17T10:43:07.944Z,55.76
2023-05-17T10:48:11.970Z,52.02
2023-05-17T10:53:16.438Z,50.11
2023-05-17T10:58:21.150Z,53.32
2023-05-17T11:03:28.767Z,54.50
2023-05-17T11:08:34.166Z,54.17
2023-05-17T11:13:45.614Z,52.92
2023-05-17T11:18:53.504Z,52.63
2023-05-17T11:24:03.812Z,48.70
2023-05-17T11:29:10.483Z,53.12
2023-05-17T11:34:13.961Z,50.59
2023-05-17T11:39:20.971Z,51.96
2023-05-17T11:44:26.939Z,49.75
2023-05-17T11:49:35.712Z,48.93
2023-05-17T11:54:43.026Z,46.10
2023-05-17T11:59:46.291Z,47.53
2023-05-17T12:04:49.268Z,47.63
2023-05-17T12:09:53.728Z,49.53
2023-05-17T12:14:58.663Z,50.13
2023-05-17T12:20:08.562Z,47.69
2023-05-17T12:25:23.586Z,47.76
2023-05-17T12:30:26.931Z,46.80
2023-05-17T12:35:30.225Z,47.04
2023-05-17T12:40:34.605Z,45.66
2023-05-17T12:45:37.551Z,43.54
2023-05-17T12:50:45.801Z,45.55
2023-05-17T12:55:50.415Z,45.23
2023-05-17T13:01:03.368Z,48.58
2023-05-17T13:06:10.127Z,48.48
2023-05-17T13:11:15.881Z,49.55
2023-05-17T13:16:19.090Z,45.94
2023-05-17T13:21:23.041Z,49.49
2023-05-17T13:26:27.358Z,47.45
2023-05-17T13:31:30.270Z,46.15
2023-05-17T13:36:33.162Z,48.02
2023-05-17T13:41:37.472Z,47.46
2023-05-17T13:46:40.459Z,46.22
2023-05-17T13:51:43.453Z,47.58
2023-05-17T13:56:47.889Z,47.27
2023-05-17T14:01:50.853Z,45.23
2023-05-17T14:06:55.166Z,45.97
2023-05-17T14:12:01.123Z,42.82
2023-05-17T14:17:04.536Z,45.04
2023-05-17T14:22:08.858Z,45.09
2023-05-17T14:27:13.123Z,45.09
2023-05-17T14:32:16.070Z,46.10
2023-05-17T14:37:19.105Z,42.46
2023-05-17T14:42:23.435Z,42.81
2023-05-17T14:47:26.534Z,39.93
2023-05-17T14:52:29.556Z,39.48
2023-05-17T14:57:34.590Z,41.15
2023-05-17T15:02:37.945Z,39.77
2023-05-17T15:07:40.874Z,42.01
2023-05-17T15:12:45.798Z,41.93
2023-05-17T15:17:48.769Z,42.03
2023-05-17T15:22:52.154Z,41.55
2023-05-17T15:27:56.522Z,42.09
2023-05-17T15:33:00.272Z,40.95
2023-05-17T15:38:07.132Z,41.93
2023-05-17T15:43:11.903Z,40.15
2023-05-17T15:48:15.190Z,40.74
2023-05-17T15:53:18.277Z,40.49
2023-05-17T15:58:24.001Z,41.74
2023-05-17T16:03:27.081Z,39.83
2023-05-17T16:08:30.012Z,40.17
2023-05-17T16:13:34.319Z,40.46
2023-05-17T16:18:37.322Z,39.51
2023-05-17T16:23:40.364Z,39.85
2023-05-17T16:28:44.645Z,40.33
2023-05-17T16:33:47.604Z,40.13
2023-05-17T16:38:51.497Z,40.31
2023-05-17T16:43:55.790Z,40.59
2023-05-17T16:48:58.690Z,41.38
2023-05-17T16:54:01.604Z,40.87
2023-05-17T16:59:06.100Z,41.72
2023-05-17T17:04:09.030Z,41.69
2023-05-17T17:09:12.266Z,41.81
2023-05-17T17:14:16.779Z,41.87
2023-05-17T17:19:19.781Z,42.00
2023-05-17T17:24:22.797Z,38.99
2023-05-17T17:29:27.148Z,40.66
2023-05-17T17:34:30.035Z,41.54
2023-05-17T17:39:32.953Z,42.18
2023-05-17T17:44:37.321Z,41.73
2023-05-17T17:49:40.264Z,40.23
2023-05-17T17:54:45.213Z,40.42
2023-05-17T17:59:50.396Z,40.64
2023-05-17T18:04:53.397Z,40.79
2023-05-17T18:09:57.032Z,41.37
2023-05-17T18:15:01.778Z,41.15
2023-05-17T18:20:06.790Z,42.16
2023-05-17T18:25:10.439Z,42.26
2023-05-17T18:30:15.518Z,42.15
2023-05-17T18:35:18.473Z,42.55
2023-05-17T18:40:21.575Z,41.69
2023-05-17T18:45:26.446Z,42.26
2023-05-17T18:50:29.816Z,42.81
2023-05-17T18:55:33.238Z,42.94
2023-05-17T19:00:37.615Z,45.67
2023-05-17T19:05:40.574Z,46.40
2023-05-17T19:10:43.563Z,45.97
2023-05-17T19:15:48.466Z,45.08
2023-05-17T19:20:51.510Z,45.95
2023-05-17T19:25:55.064Z,47.78
2023-05-17T19:30:59.419Z,48.09
2023-05-17T19:36:02.655Z,48.62
2023-05-17T19:41:07.427Z,49.02
2023-05-17T19:46:12.210Z,49.92
2023-05-17T19:51:15.176Z,50.59
2023-05-17T19:56:18.549Z,49.96
2023-05-17T20:01:22.961Z,50.51
2023-05-17T20:06:26.061Z,52.02
2023-05-17T20:11:29.377Z,51.61
2023-05-17T20:16:33.733Z,51.59
2023-05-17T20:21:36.764Z,50.37
2023-05-17T20:26:39.738Z,50.82
2023-05-17T20:31:44.140Z,51.76
2023-05-17T20:36:47.102Z,50.74
2023-05-17T20:41:50.026Z,52.27
2023-05-17T20:46:56.011Z,52.94
2023-05-17T20:52:03.203Z,53.90
2023-05-17T20:57:06.628Z,52.85
2023-05-17T21:02:10.959Z,52.79
2023-05-17T21:07:13.986Z,53.78
2023-05-17T21:12:16.923Z,55.18
2023-05-17T21:17:21.223Z,55.68
2023-05-17T21:22:24.137Z,55.28
2023-05-17T21:27:27.517Z,57.24
2023-05-17T21:32:31.897Z,58.61
2023-05-17T21:37:37.005Z,59.88
2023-05-17T21:42:40.084Z,59.85
2023-05-17T21:47:44.478Z,60.76
2023-05-17T21:52:47.416Z,60.45
2023-05-17T21:57:50.698Z,61.16
2023-05-17T22:02:55.386Z,62.34
2023-05-17T22:07:59.515Z,62.31
2023-05-17T22:13:03.122Z,63.61
2023-05-17T22:18:07.480Z,62.75
2023-05-17T22:23:10.506Z,61.05
2023-05-17T22:28:13.498Z,60.31
2023-05-17T22:33:17.787Z,62.03
2023-05-17T22:38:21.139Z,60.58
2023-05-17T22:43:25.858Z,61.90
2023-05-17T22:48:30.685Z,63.16
2023-05-17T22:53:33.705Z,65.05
2023-05-17T22:58:36.706Z,63.66
2023-05-17T23:03:40.995Z,64.75
2023-05-17T23:08:44.364Z,65.35
2023-05-17T23:13:47.433Z,65.89
2023-05-17T23:18:51.751Z,66.53
2023-05-17T23:23:55.704Z,66.42
2023-05-17T23:28:58.631Z,66.94
2023-05-17T23:34:02.951Z,67.19
2023-05-17T23:39:06.393Z,68.20
2023-05-17T23:44:09.346Z,68.06
2023-05-17T23:49:14.753Z,69.11
2023-05-17T23:54:17.652Z,68.90
2023-05-17T23:59:22.699Z,69.71
